Time;durP1;ratioP1;P1;durP2;ratioP2;P2;SDS_P1;SDS_P2;PMS_P1;PMS_P2;Temp;Humidity;BMP_temperature;BMP_pressure;BME280_temperature;BME280_humidity;BME280_pressure;Samples;Min_cycle;Max_cycle;Signal;HPM_P1;HPM_P2
2023/10/28 00:01:20;;;;;;;0.55;0.55;;;;;;;10.46;100.00;96868.81;4101706;28;20215;-45
2023/10/28 00:03:22;;;;;;;0.40;0.40;;;;;;;10.43;100.00;96874.88;4117722;28;20198;-44
2023/10/28 00:05:26;;;;;;;0.60;0.60;;;;;;;10.36;100.00;96874.41;4118017;28;20624;-44
2023/10/28 00:07:28;;;;;;;0.60;0.60;;;;;;;10.34;100.00;96879.38;4117361;28;20210;-44
2023/10/28 00:09:30;;;;;;;0.70;0.70;;;;;;;10.28;100.00;96881.31;4118302;28;20210;-45
2023/10/28 00:11:32;;;;;;;0.70;0.70;;;;;;;10.33;100.00;96874.97;4117633;28;20206;-45
2023/10/28 00:13:34;;;;;;;1.05;1.05;;;;;;;10.28;100.00;96885.97;4119191;28;20202;-44
2023/10/28 00:15:36;;;;;;;0.60;0.60;;;;;;;10.27;100.00;96889.81;4103234;28;20228;-45
2023/10/28 00:17:38;;;;;;;0.70;0.70;;;;;;;10.28;100.00;96894.19;4115060;28;20685;-44
2023/10/28 00:19:39;;;;;;;0.88;0.88;;;;;;;10.25;100.00;96889.28;4119154;28;20709;-44
2023/10/28 00:21:42;;;;;;;0.60;0.60;;;;;;;10.23;100.00;96896.94;4102179;28;20226;-44
2023/10/28 00:23:44;;;;;;;0.70;0.70;;;;;;;10.23;100.00;96894.22;4101952;28;20211;-44
2023/10/28 00:25:46;;;;;;;0.75;0.70;;;;;;;10.18;100.00;96883.31;4119255;28;20656;-44
2023/10/28 00:27:48;;;;;;;0.47;0.47;;;;;;;10.15;100.00;96878.44;4138303;28;20216;-45
2023/10/28 00:29:52;;;;;;;0.68;0.68;;;;;;;10.18;100.00;96884.16;4097024;28;20211;-44
2023/10/28 00:31:54;;;;;;;0.40;0.40;;;;;;;10.09;100.00;96899.53;4087531;28;20283;-45
2023/10/28 00:33:56;;;;;;;0.70;0.70;;;;;;;10.11;100.00;96901.97;4115914;28;20218;-44
2023/10/28 00:35:57;;;;;;;0.70;0.70;;;;;;;10.07;100.00;96909.13;4118430;28;20230;-45
2023/10/28 00:37:59;;;;;;;0.75;0.75;;;;;;;10.04;100.00;96898.75;4119780;28;20210;-44
2023/10/28 00:40:03;;;;;;;0.60;0.60;;;;;;;10.05;100.00;96912.16;4119555;28;20213;-45
2023/10/28 00:42:07;;;;;;;0.80;0.80;;;;;;;9.99;100.00;96904.22;4117364;28;20219;-45
2023/10/28 00:44:09;;;;;;;0.60;0.60;;;;;;;10.01;100.00;96918.44;4102569;28;20209;-44
2023/10/28 00:46:11;;;;;;;0.50;0.50;;;;;;;10.06;100.00;96912.94;4119159;28;20313;-45
2023/10/28 00:48:12;;;;;;;0.70;0.70;;;;;;;10.05;100.00;96911.31;4133233;28;20216;-45
2023/10/28 00:50:15;;;;;;;0.50;0.50;;;;;;;10.09;100.00;96918.66;4102665;28;20225;-44
2023/10/28 00:52:19;;;;;;;0.60;0.60;;;;;;;10.02;100.00;96920.06;4100427;28;20214;-45
2023/10/28 00:54:23;;;;;;;0.47;0.47;;;;;;;10.06;100.00;96919.22;4118533;28;20667;-44
2023/10/28 00:56:25;;;;;;;0.50;0.50;;;;;;;10.06;100.00;96913.78;4117969;28;20704;-44
2023/10/28 00:58:27;;;;;;;0.60;0.60;;;;;;;10.05;100.00;96916.78;4113841;28;20211;-45
2023/10/28 01:00:29;;;;;;;0.50;0.50;;;;;;;10.03;100.00;96929.88;4130715;28;20761;-44
2023/10/28 01:02:31;;;;;;;0.70;0.70;;;;;;;10.10;100.00;96931.25;4113733;28;20649;-45
2023/10/28 01:04:33;;;;;;;0.55;0.55;;;;;;;10.03;100.00;96935.34;4116135;28;20765;-45
2023/10/28 01:06:36;;;;;;;0.60;0.60;;;;;;;10.04;100.00;96942.47;4134585;28;20257;-44
2023/10/28 01:08:39;;;;;;;0.70;0.70;;;;;;;10.06;100.00;96935.63;4118204;28;20648;-44
2023/10/28 01:10:41;;;;;;;0.50;0.50;;;;;;;10.04;100.00;96931.53;4134171;28;20212;-44
2023/10/28 01:12:42;;;;;;;0.50;0.50;;;;;;;10.02;100.00;96931.00;4118478;28;20207;-44
2023/10/28 01:14:44;;;;;;;0.65;0.65;;;;;;;9.91;100.00;96922.06;4116934;28;20234;-44
2023/10/28 01:16:46;;;;;;;0.68;0.68;;;;;;;9.91;100.00;96933.00;4117576;28;20234;-45
2023/10/28 01:18:55;;;;;;;0.60;0.60;;;;;;;9.91;100.00;96932.16;4103309;28;20246;-45
2023/10/28 01:20:57;;;;;;;0.50;0.50;;;;;;;9.89;100.00;96934.38;4102664;28;20215;-44
2023/10/28 01:23:01;;;;;;;0.93;0.73;;;;;;;9.95;100.00;96934.03;4102175;28;20685;-45
2023/10/28 01:25:03;;;;;;;0.70;0.70;;;;;;;9.99;100.00;96934.28;4115738;28;20317;-45
2023/10/28 01:27:05;;;;;;;0.80;0.80;;;;;;;10.01;100.00;96932.09;4117791;28;20265;-44
2023/10/28 01:29:07;;;;;;;0.50;0.50;;;;;;;10.06;100.00;96937.53;4118850;28;20210;-45
2023/10/28 01:31:09;;;;;;;2.47;1.38;;;;;;;10.01;100.00;96938.34;4117563;28;20250;-45
2023/10/28 01:33:10;;;;;;;0.73;0.73;;;;;;;10.01;100.00;96935.63;4102951;28;20624;-44
2023/10/28 01:35:13;;;;;;;0.45;0.45;;;;;;;10.03;100.00;96938.91;4119830;28;20247;-45
2023/10/28 01:37:16;;;;;;;0.60;0.60;;;;;;;9.96;100.00;96929.41;4105409;28;20215;-44
2023/10/28 01:39:18;;;;;;;0.60;0.60;;;;;;;9.95;100.00;96933.25;4122357;28;20209;-45
2023/10/28 01:41:19;;;;;;;0.82;0.77;;;;;;;9.98;100.00;96938.13;4105639;28;20211;-45
2023/10/28 01:43:21;;;;;;;1.15;0.80;;;;;;;9.94;100.00;96931.59;4122296;28;20248;-45
2023/10/28 01:45:23;;;;;;;0.60;0.60;;;;;;;9.96;100.00;96934.88;4104083;28;20227;-44
2023/10/28 01:47:25;;;;;;;0.68;0.68;;;;;;;10.00;100.00;96941.38;4136548;28;20198;-45
2023/10/28 01:49:27;;;;;;;0.60;0.60;;;;;;;10.04;100.00;96942.47;4120273;28;20218;-45
2023/10/28 01:51:29;;;;;;;0.57;0.57;;;;;;;10.02;100.00;96939.19;4121167;28;20206;-46
2023/10/28 01:53:30;;;;;;;0.50;0.50;;;;;;;10.03;100.00;96932.63;4121130;28;20727;-46
2023/10/28 01:55:32;;;;;;;0.50;0.50;;;;;;;10.03;100.00;96938.09;4137050;28;20645;-45
2023/10/28 01:57:34;;;;;;;0.63;0.63;;;;;;;10.03;100.00;96940.81;4119026;28;20249;-45
2023/10/28 01:59:37;;;;;;;0.60;0.60;;;;;;;10.04;100.00;96942.47;4118664;28;20207;-45
2023/10/28 02:01:39;;;;;;;1.52;1.45;;;;;;;10.01;100.00;96948.50;4123219;28;20301;-45
2023/10/28 02:03:41;;;;;;;0.60;0.60;;;;;;;10.08;100.00;96938.09;4104796;28;20225;-44
2023/10/28 02:05:42;;;;;;;3.10;0.60;;;;;;;9.99;100.00;96940.56;4104833;28;20251;-45
2023/10/28 02:07:45;;;;;;;0.70;0.70;;;;;;;10.03;100.00;96940.81;4104233;28;20251;-45
2023/10/28 02:09:48;;;;;;;0.60;0.60;;;;;;;10.02;100.00;96928.25;4120788;28;20259;-45
2023/10/28 02:11:52;;;;;;;1.30;0.70;;;;;;;10.04;100.00;96942.47;4107003;28;22524;-44
2023/10/28 02:13:54;;;;;;;0.50;0.50;;;;;;;10.07;100.00;96940.00;4107807;28;20276;-45
2023/10/28 02:15:56;;;;;;;0.60;0.60;;;;;;;10.01;100.00;96943.03;4107279;28;20236;-45
2023/10/28 02:17:58;;;;;;;0.40;0.40;;;;;;;10.01;100.00;96943.03;4105892;28;20305;-44
2023/10/28 02:19:59;;;;;;;0.60;0.60;;;;;;;10.07;100.00;96942.72;4116596;28;20232;-45
2023/10/28 02:22:02;;;;;;;1.08;0.98;;;;;;;10.08;100.00;96943.56;4087841;28;20231;-45
2023/10/28 02:24:16;;;;;;;0.68;0.68;;;;;;;10.04;100.00;96946.03;4104601;28;20214;-45
2023/10/28 02:26:18;;;;;;;0.50;0.50;;;;;;;10.12;100.00;96944.59;4120738;28;20226;-45
2023/10/28 02:28:20;;;;;;;1.00;0.60;;;;;;;10.09;100.00;96945.19;4117749;28;20210;-45
2023/10/28 02:30:22;;;;;;;0.63;0.63;;;;;;;10.11;100.00;96942.97;4102742;28;20279;-46
2023/10/28 02:32:23;;;;;;;0.52;0.52;;;;;;;10.05;100.00;96944.09;4102540;28;20313;-45
2023/10/28 02:34:25;;;;;;;1.00;0.90;;;;;;;10.05;100.00;96942.19;4084300;28;20323;-45
2023/10/28 02:36:27;;;;;;;1.38;0.93;;;;;;;10.13;100.00;96948.94;4104849;28;20216;-45
2023/10/28 02:38:29;;;;;;;1.15;0.85;;;;;;;10.13;100.00;96951.69;4103246;28;20274;-45
2023/10/28 02:40:30;;;;;;;1.02;1.02;;;;;;;10.11;100.00;96948.44;4135812;28;20248;-45
2023/10/28 02:42:32;;;;;;;0.88;0.88;;;;;;;10.11;100.00;96941.06;4100595;28;20712;-45
2023/10/28 02:44:34;;;;;;;0.65;0.65;;;;;;;10.15;100.00;96950.31;4107145;28;20313;-45
2023/10/28 02:46:35;;;;;;;2.67;0.80;;;;;;;10.10;100.00;96942.16;4118028;28;20304;-45
2023/10/28 02:48:37;;;;;;;1.27;1.17;;;;;;;10.15;100.00;96946.78;4120629;28;20649;-44
2023/10/28 02:50:39;;;;;;;0.60;0.60;;;;;;;10.13;100.00;96936.13;4110517;28;20262;-44
2023/10/28 02:52:40;;;;;;;11.05;0.55;;;;;;;10.16;100.00;96940.19;4133631;28;20263;-45
2023/10/28 02:54:43;;;;;;;0.63;0.63;;;;;;;10.12;100.00;96933.66;4112329;28;20387;-45
2023/10/28 02:56:45;;;;;;;5.30;1.45;;;;;;;10.17;100.00;96933.63;4104293;28;20211;-45
2023/10/28 02:58:46;;;;;;;1.50;0.80;;;;;;;10.16;100.00;96934.72;4117085;28;20225;-45
2023/10/28 03:00:48;;;;;;;0.80;0.80;;;;;;;10.08;100.00;96940.81;4136523;28;20210;-44
2023/10/28 03:02:52;;;;;;;0.70;0.70;;;;;;;10.09;100.00;96939.72;4123095;28;20210;-45
2023/10/28 03:04:54;;;;;;;0.60;0.60;;;;;;;10.11;100.00;96951.16;4118569;28;20227;-44
2023/10/28 03:06:56;;;;;;;0.60;0.60;;;;;;;10.09;100.00;96945.19;4115445;28;20230;-44
2023/10/28 03:08:59;;;;;;;0.68;0.68;;;;;;;10.11;100.00;96943.78;4119245;28;20218;-45
2023/10/28 03:11:00;;;;;;;0.60;0.60;;;;;;;10.16;100.00;96945.66;4118433;28;20577;-44
2023/10/28 03:13:02;;;;;;;0.50;0.50;;;;;;;10.12;100.00;96939.13;4135309;28;20253;-44
2023/10/28 03:15:05;;;;;;;1.27;0.60;;;;;;;10.11;100.00;96949.25;4120547;28;20238;-44
2023/10/28 03:17:07;;;;;;;0.50;0.50;;;;;;;10.12;100.00;96941.84;4118560;28;20234;-45
2023/10/28 03:19:11;;;;;;;2.63;0.77;;;;;;;10.16;100.00;96951.13;4101438;28;20222;-45
2023/10/28 03:21:12;;;;;;;1.35;1.25;;;;;;;10.15;100.00;96944.03;4102744;28;20643;-45
2023/10/28 03:23:14;;;;;;;1.65;0.80;;;;;;;10.14;100.00;96942.41;4118648;28;20249;-45
2023/10/28 03:25:16;;;;;;;2.30;1.35;;;;;;;10.13;100.00;96938.03;4121033;28;20630;-46
2023/10/28 03:27:18;;;;;;;0.60;0.60;;;;;;;10.10;100.00;96944.91;4117221;28;20229;-44
2023/10/28 03:29:20;;;;;;;0.70;0.70;;;;;;;10.09;100.00;96936.97;4102825;28;20218;-45
2023/10/28 03:31:21;;;;;;;0.68;0.68;;;;;;;10.05;100.00;96944.09;4117884;28;20215;-44
2023/10/28 03:33:26;;;;;;;1.23;0.80;;;;;;;9.98;100.00;96946.31;4118555;28;20244;-44
2023/10/28 03:35:28;;;;;;;0.80;0.80;;;;;;;10.02;100.00;96944.66;4121833;28;20233;-44
2023/10/28 03:37:31;;;;;;;3.92;0.90;;;;;;;10.03;100.00;96940.81;4121222;28;20304;-45
2023/10/28 03:39:33;;;;;;;2.00;1.02;;;;;;;10.03;100.00;96951.75;4121620;28;20218;-45
2023/10/28 03:41:35;;;;;;;0.82;0.82;;;;;;;10.05;100.00;96949.56;4122219;28;20209;-45
2023/10/28 03:43:40;;;;;;;5.00;0.63;;;;;;;10.03;100.00;96946.28;4116029;28;20673;-45
2023/10/28 03:45:41;;;;;;;0.82;0.82;;;;;;;10.06;100.00;96948.47;4104703;28;20226;-44
2023/10/28 03:47:43;;;;;;;1.25;0.85;;;;;;;10.07;100.00;96944.66;4103252;28;20227;-45
2023/10/28 03:49:45;;;;;;;2.40;1.35;;;;;;;10.08;100.00;96949.00;4134487;28;20212;-44
2023/10/28 03:51:47;;;;;;;0.60;0.60;;;;;;;10.05;100.00;96944.09;4102771;28;20296;-44
2023/10/28 03:53:49;;;;;;;2.80;0.90;;;;;;;10.12;100.00;96947.31;4101836;28;20207;-45
2023/10/28 03:55:51;;;;;;;0.88;0.88;;;;;;;10.06;100.00;96940.25;4134407;28;20233;-44
2023/10/28 03:57:54;;;;;;;3.78;1.00;;;;;;;10.07;100.00;96942.72;4136625;28;20244;-44
2023/10/28 03:59:55;;;;;;;0.80;0.80;;;;;;;10.05;100.00;96944.94;4110479;28;20207;-45
2023/10/28 04:01:58;;;;;;;0.98;0.98;;;;;;;10.13;100.00;96943.50;4132956;28;20229;-45
2023/10/28 04:04:00;;;;;;;0.75;0.75;;;;;;;10.08;100.00;96946.28;4099843;28;20219;-44
2023/10/28 04:06:02;;;;;;;0.80;0.80;;;;;;;10.10;100.00;96942.16;4102935;28;20203;-45
2023/10/28 04:08:08;;;;;;;0.95;0.95;;;;;;;10.11;100.00;96943.78;4115346;28;20290;-44
2023/10/28 04:10:10;;;;;;;0.90;0.90;;;;;;;10.07;100.00;96947.38;4118284;28;20214;-45
2023/10/28 04:12:12;;;;;;;0.93;0.93;;;;;;;10.12;100.00;96950.88;4133749;28;20213;-44
2023/10/28 04:14:13;;;;;;;1.15;1.15;;;;;;;10.10;100.00;96955.00;4134495;28;20221;-44
2023/10/28 04:16:15;;;;;;;10.32;1.50;;;;;;;10.12;100.00;96950.06;4119235;28;20210;-45
2023/10/28 04:18:17;;;;;;;0.93;0.85;;;;;;;10.13;100.00;96944.31;4118571;28;20221;-44
2023/10/28 04:20:19;;;;;;;2.85;0.95;;;;;;;10.15;100.00;96949.50;4099324;28;20281;-44
2023/10/28 04:22:21;;;;;;;1.10;0.70;;;;;;;10.12;100.00;96950.88;4132494;28;20216;-44
2023/10/28 04:24:26;;;;;;;1.67;1.15;;;;;;;10.13;100.00;96935.28;4117258;28;20775;-44
2023/10/28 04:26:28;;;;;;;1.60;1.10;;;;;;;10.12;100.00;96944.59;4115174;28;20230;-45
2023/10/28 04:28:29;;;;;;;10.20;1.40;;;;;;;10.14;100.00;96947.88;4119042;28;20627;-45
2023/10/28 04:30:31;;;;;;;4.05;1.27;;;;;;;10.18;100.00;96955.22;4114041;28;20209;-46
2023/10/28 04:32:34;;;;;;;0.63;0.63;;;;;;;10.19;100.00;96950.53;4120330;28;20345;-44
2023/10/28 04:34:36;;;;;;;1.55;0.70;;;;;;;10.13;100.00;96947.03;4089084;28;20329;-44
2023/10/28 04:36:55;;;;;;;1.67;1.60;;;;;;;10.16;100.00;96956.59;4103194;28;20581;-44
2023/10/28 04:38:57;;;;;;;0.60;0.60;;;;;;;10.19;100.00;96961.47;4133849;28;20213;-45
2023/10/28 04:40:58;;;;;;;5.15;2.30;;;;;;;10.17;100.00;96952.75;4100955;28;20222;-44
2023/10/28 04:43:02;;;;;;;0.68;0.68;;;;;;;10.18;100.00;96948.91;4131939;28;20210;-45
2023/10/28 04:45:06;;;;;;;1.58;1.48;;;;;;;10.19;100.00;96956.00;4134293;28;20311;-44
2023/10/28 04:47:07;;;;;;;10.13;1.70;;;;;;;10.16;100.00;96945.66;4117255;28;20786;-45
2023/10/28 04:49:12;;;;;;;1.05;1.05;;;;;;;10.19;100.00;96956.00;4108125;28;20252;-44
2023/10/28 04:51:14;;;;;;;0.80;0.80;;;;;;;10.23;100.00;96951.63;4102995;28;20242;-44
2023/10/28 04:53:15;;;;;;;1.02;1.02;;;;;;;10.18;100.00;96954.38;4116431;28;20206;-45
2023/10/28 04:55:17;;;;;;;1.35;0.75;;;;;;;10.24;100.00;96953.25;4117858;28;20230;-44
2023/10/28 04:57:20;;;;;;;1.27;1.05;;;;;;;10.24;100.00;96961.44;4117537;28;20225;-45
2023/10/28 04:59:22;;;;;;;1.77;1.40;;;;;;;10.24;100.00;96958.72;4117132;28;20199;-44
2023/10/28 05:01:24;;;;;;;3.10;1.05;;;;;;;10.26;100.00;96951.03;4132936;28;20707;-45
2023/10/28 05:03:25;;;;;;;1.00;1.00;;;;;;;10.22;100.00;96950.00;4101368;28;20206;-45
2023/10/28 05:05:27;;;;;;;1.25;1.05;;;;;;;10.23;100.00;96948.88;4106113;28;20625;-45
2023/10/28 05:07:29;;;;;;;0.88;0.88;;;;;;;10.23;100.00;96946.97;4137251;28;20229;-44
2023/10/28 05:09:31;;;;;;;0.50;0.50;;;;;;;10.24;100.00;96934.94;4103162;28;20600;-44
2023/10/28 05:11:32;;;;;;;1.55;1.48;;;;;;;10.23;100.00;96940.69;4139298;28;20213;-45
2023/10/28 05:13:34;;;;;;;2.83;1.02;;;;;;;10.26;100.00;96946.41;4121159;28;20206;-45
2023/10/28 05:15:36;;;;;;;2.03;1.92;;;;;;;10.25;100.00;96949.41;4102742;28;20689;-45
2023/10/28 05:17:38;;;;;;;3.60;1.33;;;;;;;10.22;100.00;96944.53;4105312;28;20727;-44
2023/10/28 05:19:41;;;;;;;4.90;1.08;;;;;;;10.20;100.00;96941.25;4136735;28;20274;-45
2023/10/28 05:21:43;;;;;;;0.70;0.70;;;;;;;10.26;100.00;96945.56;4121985;28;20661;-45
2023/10/28 05:23:44;;;;;;;1.10;1.00;;;;;;;10.25;100.00;96943.94;4104815;28;20234;-45
2023/10/28 05:25:46;;;;;;;1.08;0.93;;;;;;;10.20;100.00;96946.72;4105414;28;20231;-45
2023/10/28 05:27:49;;;;;;;0.70;0.70;;;;;;;10.20;100.00;96941.25;4120262;28;20273;-44
2023/10/28 05:29:51;;;;;;;1.27;0.85;;;;;;;10.16;100.00;96934.72;4103508;28;20210;-44
2023/10/28 05:31:56;;;;;;;0.73;0.73;;;;;;;10.14;100.00;96937.75;4106640;28;20218;-44
2023/10/28 05:33:59;;;;;;;1.15;1.15;;;;;;;10.14;100.00;96936.94;4103759;28;20238;-45
2023/10/28 05:36:02;;;;;;;12.85;1.35;;;;;;;10.11;100.00;96942.97;4105008;28;20665;-45
2023/10/28 05:38:04;;;;;;;0.70;0.70;;;;;;;10.12;100.00;96939.13;4135871;28;20217;-46
2023/10/28 05:40:10;;;;;;;0.80;0.80;;;;;;;10.16;100.00;96937.47;4121083;28;20569;-45
2023/10/28 05:42:14;;;;;;;1.15;1.02;;;;;;;10.15;100.00;96938.56;4120316;28;20209;-44
2023/10/28 05:44:17;;;;;;;2.33;0.77;;;;;;;10.18;100.00;96944.28;4103526;28;20207;-44
2023/10/28 05:46:22;;;;;;;1.90;0.73;;;;;;;10.18;100.00;96948.91;4105608;28;20215;-45
2023/10/28 05:48:24;;;;;;;0.43;0.43;;;;;;;10.17;100.00;96947.28;4102744;28;21002;-44
2023/10/28 05:50:27;;;;;;;7.00;1.27;;;;;;;10.23;100.00;96948.88;4089051;28;20215;-44
2023/10/28 05:52:30;;;;;;;0.77;0.70;;;;;;;10.22;100.00;96955.47;4119386;28;20214;-45
2023/10/28 05:54:32;;;;;;;0.75;0.70;;;;;;;10.22;100.00;96953.53;4121022;28;20729;-44
2023/10/28 05:56:37;;;;;;;2.00;1.15;;;;;;;10.23;100.00;96957.09;4120679;28;20226;-45
2023/10/28 05:58:38;;;;;;;0.77;0.77;;;;;;;10.23;100.00;96963.38;4119935;28;20656;-45
2023/10/28 06:00:41;;;;;;;8.68;1.52;;;;;;;10.21;100.00;96962.84;4105084;28;20301;-45
2023/10/28 06:02:43;;;;;;;0.70;0.70;;;;;;;10.23;100.00;96962.56;4119412;28;20261;-44
2023/10/28 06:04:45;;;;;;;1.27;0.95;;;;;;;10.16;100.00;96957.41;4094711;28;20239;-45
2023/10/28 06:06:48;;;;;;;0.80;0.70;;;;;;;10.12;100.00;96970.03;4118674;28;20214;-44
2023/10/28 06:08:50;;;;;;;0.65;0.65;;;;;;;10.08;100.00;96965.41;4120292;28;20213;-44
2023/10/28 06:10:51;;;;;;;8.88;1.13;;;;;;;10.06;100.00;96973.06;4119156;28;20715;-45
2023/10/28 06:12:53;;;;;;;8.98;0.93;;;;;;;10.05;100.00;96975.00;4111313;28;20211;-45
2023/10/28 06:14:55;;;;;;;1.17;1.02;;;;;;;10.01;100.00;96975.81;4102880;28;20235;-45
2023/10/28 06:16:57;;;;;;;0.63;0.63;;;;;;;10.04;100.00;96986.19;4120222;28;20214;-44
2023/10/28 06:19:00;;;;;;;1.25;1.02;;;;;;;10.02;100.00;96991.09;4119924;28;20572;-44
2023/10/28 06:21:03;;;;;;;3.42;1.05;;;;;;;10.08;100.00;96981.81;4088010;28;20220;-44
2023/10/28 06:23:06;;;;;;;0.57;0.57;;;;;;;10.08;100.00;96987.28;4118544;28;20217;-45
2023/10/28 06:25:08;;;;;;;2.28;1.08;;;;;;;10.07;100.00;96993.84;4122132;28;20231;-45
2023/10/28 06:27:10;;;;;;;1.27;0.50;;;;;;;10.12;100.00;96988.31;4105817;28;20669;-45
2023/10/28 06:29:13;;;;;;;0.75;0.75;;;;;;;10.12;100.00;96996.53;4124609;28;20210;-44
2023/10/28 06:31:15;;;;;;;1.30;1.20;;;;;;;10.10;100.00;96998.72;4138075;28;20565;-45
2023/10/28 06:33:17;;;;;;;0.75;0.75;;;;;;;10.10;100.00;96996.81;4135457;28;20213;-46
2023/10/28 06:35:19;;;;;;;1.23;1.02;;;;;;;10.14;100.00;96997.88;4135293;28;20439;-45
2023/10/28 06:37:21;;;;;;;0.68;0.68;;;;;;;10.22;100.00;96988.25;4103424;28;20247;-45
2023/10/28 06:39:23;;;;;;;1.95;1.23;;;;;;;10.18;100.00;97000.84;4121018;28;20233;-44
2023/10/28 06:41:25;;;;;;;0.82;0.82;;;;;;;10.20;100.00;97001.38;4121523;28;20652;-44
2023/10/28 06:43:27;;;;;;;1.60;0.98;;;;;;;10.20;100.00;96999.47;4102671;28;20601;-44
2023/10/28 06:45:29;;;;;;;7.07;0.95;;;;;;;10.24;100.00;97010.66;4136429;28;20233;-44
2023/10/28 06:47:30;;;;;;;0.88;0.88;;;;;;;10.23;100.00;97011.75;4118743;28;20293;-43
2023/10/28 06:49:32;;;;;;;1.10;1.00;;;;;;;10.22;100.00;97021.84;4104356;28;21116;-45
2023/10/28 06:51:34;;;;;;;0.60;0.60;;;;;;;10.20;100.00;97006.84;4121619;28;20264;-44
2023/10/28 06:53:36;;;;;;;1.58;1.00;;;;;;;10.25;100.00;97015.84;4103948;28;20211;-44
2023/10/28 06:55:37;;;;;;;1.08;0.95;;;;;;;10.28;100.00;97025.41;4135434;28;20229;-45
2023/10/28 06:57:39;;;;;;;0.90;0.90;;;;;;;10.23;100.00;97017.22;4117785;28;20615;-44
2023/10/28 06:59:41;;;;;;;1.17;0.68;;;;;;;10.22;100.00;97021.06;4132804;28;20209;-45
2023/10/28 07:01:42;;;;;;;3.70;0.82;;;;;;;10.26;100.00;97027.56;4119580;28;20262;-44
2023/10/28 07:03:45;;;;;;;0.95;0.95;;;;;;;10.25;100.00;97025.94;4135248;28;20218;-45
2023/10/28 07:05:47;;;;;;;0.77;0.77;;;;;;;10.29;100.00;97025.09;4091034;28;20275;-44
2023/10/28 07:07:49;;;;;;;0.77;0.77;;;;;;;10.24;100.00;97022.41;4138496;28;20232;-45
2023/10/28 07:09:51;;;;;;;0.80;0.80;;;;;;;10.30;100.00;97029.47;4104867;28;20312;-45
2023/10/28 07:11:53;;;;;;;1.65;0.82;;;;;;;10.30;100.00;97023.19;4119895;28;20319;-45
2023/10/28 07:13:55;;;;;;;0.70;0.70;;;;;;;10.36;100.00;97028.31;4086696;28;20650;-45
2023/10/28 07:16:01;;;;;;;0.95;0.95;;;;;;;10.36;100.00;97030.25;4087677;28;20322;-44
2023/10/28 07:18:05;;;;;;;0.50;0.50;;;;;;;10.42;100.00;97040.84;4102969;28;20214;-44
2023/10/28 07:20:07;;;;;;;4.25;1.30;;;;;;;10.41;100.00;97032.94;4134577;28;20221;-45
2023/10/28 07:22:09;;;;;;;0.93;0.85;;;;;;;10.44;100.00;97051.50;4120599;28;20745;-45
2023/10/28 07:24:11;;;;;;;0.70;0.70;;;;;;;10.41;100.00;97043.88;4117455;28;20218;-45
2023/10/28 07:26:13;;;;;;;0.77;0.77;;;;;;;10.47;100.00;97050.94;4120077;28;20304;-45
2023/10/28 07:28:15;;;;;;;0.90;0.90;;;;;;;10.48;100.00;97052.59;4137109;28;20580;-45
2023/10/28 07:30:20;;;;;;;1.23;0.85;;;;;;;10.43;100.00;97060.81;4104149;28;20602;-44
2023/10/28 07:32:22;;;;;;;0.90;0.90;;;;;;;10.50;100.00;97058.56;4105192;28;20222;-45
2023/10/28 07:34:24;;;;;;;0.50;0.50;;;;;;;10.48;100.00;97060.78;4104825;28;20766;-45
2023/10/28 07:36:25;;;;;;;0.73;0.73;;;;;;;10.52;100.00;97065.41;4135393;28;20740;-44
2023/10/28 07:38:27;;;;;;;0.60;0.60;;;;;;;10.55;100.00;97069.47;4118045;28;20213;-45
2023/10/28 07:40:30;;;;;;;1.45;0.73;;;;;;;10.57;100.00;97075.47;4133673;28;20236;-44
2023/10/28 07:42:34;;;;;;;0.55;0.55;;;;;;;10.57;100.00;97070.00;4116207;28;20210;-44
2023/10/28 07:44:37;;;;;;;1.30;0.80;;;;;;;10.58;100.00;97080.66;4102839;28;20274;-47
2023/10/28 07:46:38;;;;;;;1.77;1.67;;;;;;;10.62;100.00;97080.91;4099277;28;20286;-44
2023/10/28 07:48:40;;;;;;;0.70;0.70;;;;;;;10.63;100.00;97077.06;4118787;28;20513;-44
2023/10/28 07:50:43;;;;;;;3.42;1.02;;;;;;;10.66;100.00;97085.53;4116514;28;20214;-45
2023/10/28 07:52:44;;;;;;;0.70;0.70;;;;;;;10.68;100.00;97090.72;4135789;28;20213;-45
2023/10/28 07:54:46;;;;;;;7.55;1.15;;;;;;;10.69;100.00;97092.34;4101664;28;20285;-45
2023/10/28 07:56:48;;;;;;;0.77;0.77;;;;;;;10.73;100.00;97093.38;4120992;28;21081;-45
2023/10/28 07:58:51;;;;;;;0.70;0.70;;;;;;;10.72;100.00;97098.06;4104533;28;20680;-44
2023/10/28 08:00:53;;;;;;;1.70;0.85;;;;;;;10.78;100.00;97105.94;4119651;28;20205;-45
2023/10/28 08:02:55;;;;;;;0.80;0.80;;;;;;;10.81;100.00;97107.28;4105024;28;20225;-45
2023/10/28 08:05:00;;;;;;;0.63;0.63;;;;;;;10.83;100.00;97105.91;4117095;28;20319;-45
2023/10/28 08:07:02;;;;;;;10.82;0.70;;;;;;;10.85;100.00;97103.69;4117295;28;20280;-45
2023/10/28 08:09:08;;;;;;;0.85;0.85;;;;;;;10.83;100.00;97116.03;4101595;28;20223;-45
2023/10/28 08:11:11;;;;;;;4.78;0.60;;;;;;;10.82;100.00;97098.78;4118447;28;20220;-45
2023/10/28 08:13:13;;;;;;;0.70;0.70;;;;;;;10.82;100.00;97112.47;4117920;28;20202;-45
2023/10/28 08:15:15;;;;;;;0.50;0.50;;;;;;;10.90;100.00;97094.63;4132048;28;20246;-45
2023/10/28 08:17:17;;;;;;;1.33;1.23;;;;;;;10.93;100.00;97094.88;4103716;28;20203;-45
2023/10/28 08:19:19;;;;;;;1.20;1.10;;;;;;;10.94;100.00;97101.16;4102005;28;20223;-44
2023/10/28 08:21:21;;;;;;;1.50;1.45;;;;;;;10.98;100.00;97107.69;4121247;28;20210;-45
2023/10/28 08:23:23;;;;;;;0.82;0.82;;;;;;;11.02;100.00;97108.75;4104585;28;20211;-44
2023/10/28 08:25:25;;;;;;;0.68;0.68;;;;;;;11.04;100.00;97103.81;4134718;28;20305;-45
2023/10/28 08:27:26;;;;;;;1.20;1.20;;;;;;;11.04;100.00;97112.84;4116427;28;20210;-45
2023/10/28 08:29:28;;;;;;;1.00;1.00;;;;;;;11.04;100.00;97110.09;4121855;28;20210;-44
2023/10/28 08:31:30;;;;;;;0.82;0.80;;;;;;;11.04;100.00;97112.84;4116745;28;20238;-45
2023/10/28 08:33:31;;;;;;;0.75;0.73;;;;;;;11.04;100.00;97112.84;4104617;28;20215;-44
2023/10/28 08:35:33;;;;;;;1.40;1.33;;;;;;;11.03;100.00;97110.41;4110513;28;20645;-44
2023/10/28 08:37:36;;;;;;;0.60;0.60;;;;;;;11.08;100.00;97107.59;4102077;28;20286;-44
2023/10/28 08:39:37;;;;;;;1.27;0.90;;;;;;;11.08;100.00;97108.44;4101926;28;20788;-44
2023/10/28 08:41:40;;;;;;;0.80;0.80;;;;;;;11.09;100.00;97118.25;4100549;28;20608;-44
2023/10/28 08:43:45;;;;;;;0.77;0.77;;;;;;;11.16;100.00;97116.00;4098729;28;20206;-44
2023/10/28 08:45:47;;;;;;;0.50;0.50;;;;;;;11.26;100.00;97121.41;4121225;28;20245;-45
2023/10/28 08:47:50;;;;;;;0.98;0.98;;;;;;;11.27;100.00;97117.56;4112703;28;20732;-44
2023/10/28 08:49:52;;;;;;;1.05;1.05;;;;;;;11.28;100.00;97123.84;4120010;28;20214;-45
2023/10/28 08:51:58;;;;;;;0.88;0.88;;;;;;;11.23;100.00;97116.50;4120877;28;20332;-44
2023/10/28 08:54:04;;;;;;;0.70;0.70;;;;;;;11.25;100.00;97127.97;4103340;28;20215;-44
2023/10/28 08:56:06;;;;;;;4.03;0.90;;;;;;;11.30;100.00;97122.44;4104707;28;20214;-44
2023/10/28 08:58:08;;;;;;;1.48;0.90;;;;;;;11.32;100.00;97128.44;4103753;28;20202;-45
2023/10/28 09:00:17;;;;;;;0.80;0.80;;;;;;;11.37;100.00;97122.91;4103970;28;20756;-44
2023/10/28 09:02:20;;;;;;;4.05;1.17;;;;;;;11.41;100.00;97129.47;4104677;28;20209;-44
2023/10/28 09:04:22;;;;;;;3.22;1.08;;;;;;;11.40;100.00;97127.84;4104836;28;20273;-44
2023/10/28 09:06:24;;;;;;;1.88;0.68;;;;;;;11.40;100.00;97127.00;4119672;28;20214;-45
2023/10/28 09:08:27;;;;;;;0.68;0.68;;;;;;;11.47;100.00;97120.09;4104295;28;20238;-45
2023/10/28 09:10:29;;;;;;;1.02;0.95;;;;;;;11.49;100.00;97126.09;4104825;28;20214;-44
2023/10/28 09:12:32;;;;;;;2.08;0.88;;;;;;;11.51;100.00;97131.28;4120166;28;20202;-44
2023/10/28 09:14:33;;;;;;;8.48;0.95;;;;;;;11.54;100.00;97139.75;4121385;28;20230;-44
2023/10/28 09:16:35;;;;;;;0.70;0.70;;;;;;;11.56;100.00;97137.53;4107563;28;20283;-45
2023/10/28 09:18:41;;;;;;;0.70;0.70;;;;;;;11.65;100.00;97130.31;4103625;28;20211;-44
2023/10/28 09:20:43;;;;;;;0.93;0.93;;;;;;;11.72;100.00;97133.53;4101629;28;20278;-44
2023/10/28 09:22:45;;;;;;;1.25;0.82;;;;;;;11.81;100.00;97128.22;4104171;28;20806;-44
2023/10/28 09:24:47;;;;;;;1.50;1.45;;;;;;;11.84;100.00;97131.22;4088493;28;20232;-45
2023/10/28 09:26:52;;;;;;;1.40;1.40;;;;;;;11.84;100.00;97147.66;4119860;28;20643;-44
2023/10/28 09:28:54;;;;;;;0.77;0.77;;;;;;;11.90;100.00;97135.53;4102125;28;20234;-44